Weather History for Muscatine, IA

Change the Weather History Date:

Monday, April 1, 2013

  Actual Average Record
Temperature  
Mean Temperature 32 °F -  
Max Temperature 41 °F 55 °F 86 °F (2003)
Min Temperature 24 °F 34 °F 23 °F (1989)
Degree Days  
Heating Degree Days 32    
Moisture  
Dew Point 13 °F    
Average Humidity 49    
Maximum Humidity 74    
Minimum Humidity 22    
Precipitation  
Precipitation 0.00 in - - ()
Sea Level Pressure  
Sea Level Pressure 30.19 in    
Wind  
Wind Speed 12 mph (NW)    
Max Wind Speed 21 mph    
Max Gust Speed 28 mph    
Visibility 10 miles    
Events      
Averages and records for this station are not official NWS values.
T = Trace of Precipitation, MM = Missing Value Source: NWS Daily Summary

Daily Weather History Graph

Daily Weather History Graph

Search for Another Location

Airport:

Trip Planner

Search our weather history database for the weather conditions in past years. The results will help you decide how hot, cold, wet, or windy it might be!

Date:

Astronomy

Apr. 01, 2013 Rise Set
Actual Time 6:47 AM CDT 7:30 PM CDT
Civil Twilight 6:19 AM CDT 7:58 PM CDT
Nautical Twilight 5:46 AM CDT 8:31 PM CDT
Astronomical Twilight 5:12 AM CDT 9:05 PM CDT
Moon 12:41 AM CDT (4/1) 10:31 AM CDT (4/1)
Length of Visible Light 13h 38m
Length of Day
12h 42m
Waning Gibbous, 67% of the Moon is Illuminated
Apr 1
Waning Gibbous
Apr 2
Last Quarter
Apr 10
New
Apr 18
First Quarter
Apr 25
Full

Hourly Weather History & Observations

Time (CDT) Temp. Windchill Dew Point Humidity Pressure Visibility Wind Dir Wind Speed Gust Speed Precip Events Conditions
12:15 AM 35.6 °F 25.2 °F 17.6 °F 48% 30.03 in 10.0 mi NNW 18.4 mph 24.2 mph N/A   Mostly Cloudy
12:35 AM 33.8 °F 25.3 °F 17.6 °F 52% 30.03 in 10.0 mi NW 11.5 mph 18.4 mph N/A   Scattered Clouds
12:55 AM 33.8 °F 24.8 °F 17.6 °F 52% 30.04 in 10.0 mi NNW 12.7 mph - N/A   Scattered Clouds
1:15 AM 33.8 °F 26.4 °F 17.6 °F 52% 30.05 in 10.0 mi NW 9.2 mph - N/A   Mostly Cloudy
1:35 AM 33.8 °F 25.3 °F 19.4 °F 56% 30.06 in 10.0 mi NW 11.5 mph - N/A   Scattered Clouds
1:55 AM 32.0 °F 24.2 °F 19.4 °F 60% 30.06 in 10.0 mi NW 9.2 mph - N/A   Scattered Clouds
2:15 AM 32.0 °F 22.5 °F 19.4 °F 60% 30.06 in 10.0 mi NW 12.7 mph 18.4 mph N/A   Clear
2:35 AM 30.2 °F 21.3 °F 17.6 °F 60% 30.07 in 10.0 mi NNW 10.4 mph 18.4 mph N/A   Clear
2:55 AM 30.2 °F 20.2 °F 17.6 °F 60% 30.07 in 10.0 mi NW 12.7 mph 17.3 mph N/A   Clear
3:15 AM 28.4 °F 19.1 °F 17.6 °F 64% 30.08 in 10.0 mi NW 10.4 mph - N/A   Clear
3:35 AM 28.4 °F 18.5 °F 17.6 °F 64% 30.09 in 10.0 mi NW 11.5 mph - N/A   Clear
3:55 AM 28.4 °F 20.4 °F 17.6 °F 64% 30.09 in 10.0 mi NW 8.1 mph - N/A   Clear
4:15 AM 28.4 °F 19.7 °F 17.6 °F 64% 30.10 in 10.0 mi NW 9.2 mph - N/A   Clear
4:35 AM 26.6 °F 20.0 °F 17.6 °F 69% 30.10 in 10.0 mi NW 5.8 mph - N/A   Clear
4:55 AM 26.6 °F 18.2 °F 17.6 °F 69% 30.11 in 10.0 mi NW 8.1 mph - N/A   Clear
5:15 AM 26.6 °F 17.5 °F 17.6 °F 69% 30.12 in 10.0 mi NW 9.2 mph - N/A   Clear
5:35 AM 26.6 °F 17.5 °F 17.6 °F 69% 30.12 in 10.0 mi NW 9.2 mph - N/A   Clear
6:15 AM 24.8 °F 16.9 °F 17.6 °F 74% 30.14 in 10.0 mi WNW 6.9 mph - N/A   Clear
6:35 AM 24.8 °F 15.3 °F 17.6 °F 74% 30.16 in 10.0 mi NW 9.2 mph - N/A   Clear
6:55 AM 24.8 °F 16.1 °F 17.6 °F 74% 30.16 in 10.0 mi NW 8.1 mph - N/A   Clear
7:15 AM 26.6 °F 18.2 °F 17.6 °F 69% 30.18 in 10.0 mi NW 8.1 mph - N/A   Clear
7:35 AM 26.6 °F 16.8 °F 17.6 °F 69% 30.18 in 10.0 mi NW 10.4 mph - N/A   Clear
8:15 AM 28.4 °F 18.5 °F 17.6 °F 64% 30.20 in 10.0 mi NW 11.5 mph 18.4 mph N/A   Clear
8:35 AM 30.2 °F 20.8 °F 17.6 °F 60% 30.20 in 10.0 mi NNW 11.5 mph 18.4 mph N/A   Clear
8:55 AM 30.2 °F 20.2 °F 17.6 °F 60% 30.21 in 10.0 mi NNW 12.7 mph 18.4 mph N/A   Clear
9:15 AM 32.0 °F 23.0 °F 17.6 °F 55% 30.21 in 10.0 mi NNW 11.5 mph 18.4 mph N/A   Clear
9:35 AM 32.0 °F 22.5 °F 17.6 °F 55% 30.22 in 10.0 mi NW 12.7 mph 16.1 mph N/A   Clear
9:55 AM 33.8 °F 25.3 °F 15.8 °F 48% 30.23 in 10.0 mi NW 11.5 mph - N/A   Clear
10:15 AM 33.8 °F 24.8 °F 15.8 °F 48% 30.23 in 10.0 mi NW 12.7 mph - N/A   Clear
10:35 AM 33.8 °F 24.3 °F 14.0 °F 44% 30.23 in 10.0 mi NNW 13.8 mph 17.3 mph N/A   Scattered Clouds
11:15 AM 35.6 °F 27.5 °F 12.2 °F 38% 30.24 in 10.0 mi NW 11.5 mph 23.0 mph N/A   Scattered Clouds
11:35 AM 35.6 °F 28.6 °F 10.4 °F 35% 30.24 in 10.0 mi NW 9.2 mph 20.7 mph N/A   Scattered Clouds
12:15 PM 35.6 °F 26.2 °F 8.6 °F 33% 30.24 in 10.0 mi NW 15.0 mph 23.0 mph N/A   Scattered Clouds
12:35 PM 37.4 °F 27.8 °F 8.6 °F 30% 30.24 in 10.0 mi WNW 17.3 mph 23.0 mph N/A   Scattered Clouds
12:55 PM 37.4 °F 29.3 °F 8.6 °F 30% 30.24 in 10.0 mi NW 12.7 mph 19.6 mph N/A   Clear
1:15 PM 37.4 °F 28.5 °F 8.6 °F 30% 30.23 in 10.0 mi WNW 15.0 mph 21.9 mph N/A   Scattered Clouds
1:35 PM 39.2 °F 30.8 °F 8.6 °F 28% 30.23 in 10.0 mi WNW 15.0 mph 20.7 mph N/A   Scattered Clouds
1:55 PM 39.2 °F 32.0 °F 8.6 °F 28% 30.22 in 10.0 mi WNW 11.5 mph 19.6 mph N/A   Clear
2:15 PM 39.2 °F 30.5 °F 6.8 °F 26% 30.22 in 10.0 mi NW 16.1 mph 21.9 mph N/A   Clear
2:35 PM 39.2 °F 31.6 °F 5.0 °F 24% 30.22 in 10.0 mi NNW 12.7 mph 24.2 mph N/A   Clear
2:55 PM 39.2 °F 30.8 °F 3.2 °F 22% 30.21 in 10.0 mi NNW 15.0 mph 24.2 mph N/A   Clear
3:15 PM 41.0 °F 32.8 °F 5.0 °F 23% 30.21 in 10.0 mi NW 16.1 mph 24.2 mph N/A   Clear
3:35 PM 41.0 °F 35.2 °F 6.8 °F 24% 30.21 in 10.0 mi NW 9.2 mph 20.7 mph N/A   Clear
3:55 PM 41.0 °F 33.9 °F 6.8 °F 24% 30.21 in 10.0 mi NW 12.7 mph 25.3 mph N/A   Clear
4:15 PM 41.0 °F 33.5 °F 6.8 °F 24% 30.21 in 10.0 mi NW 13.8 mph 20.7 mph N/A   Clear
4:35 PM 41.0 °F 31.6 °F 6.8 °F 24% 30.21 in 10.0 mi WNW 20.7 mph 27.6 mph N/A   Scattered Clouds
4:55 PM 41.0 °F 33.5 °F 5.0 °F 23% 30.21 in 10.0 mi NNW 13.8 mph 24.2 mph N/A   Scattered Clouds
5:15 PM 39.2 °F 30.8 °F 6.8 °F 26% 30.22 in 10.0 mi NW 15.0 mph 20.7 mph N/A   Clear
5:35 PM 39.2 °F 30.8 °F 8.6 °F 28% 30.21 in 10.0 mi WNW 15.0 mph - N/A   Clear
5:55 PM 39.2 °F 31.2 °F 8.6 °F 28% 30.21 in 10.0 mi NNW 13.8 mph 17.3 mph N/A   Scattered Clouds
6:15 PM 39.2 °F 31.2 °F 6.8 °F 26% 30.22 in 10.0 mi WNW 13.8 mph 18.4 mph N/A   Scattered Clouds
6:35 PM 37.4 °F 30.3 °F 8.6 °F 30% 30.22 in 10.0 mi NW 10.4 mph - N/A   Scattered Clouds
6:55 PM 37.4 °F 29.3 °F 8.6 °F 30% 30.22 in 10.0 mi WNW 12.7 mph 19.6 mph N/A   Clear
7:15 PM 35.6 °F 28.6 °F 8.6 °F 33% 30.22 in 10.0 mi NW 9.2 mph - N/A   Clear
7:35 PM 33.8 °F 25.3 °F 10.4 °F 38% 30.22 in 10.0 mi NW 11.5 mph - N/A   Clear
7:55 PM 33.8 °F 27.0 °F 12.2 °F 41% 30.22 in 10.0 mi NW 8.1 mph - N/A   Clear
8:15 PM 32.0 °F 25.6 °F 12.2 °F 44% 30.23 in 10.0 mi NW 6.9 mph - N/A   Clear
8:35 PM 30.2 °F 23.4 °F 14.0 °F 51% 30.24 in 10.0 mi NW 6.9 mph - N/A   Clear
8:55 PM 26.6 °F 20.0 °F 12.2 °F 55% 30.24 in 10.0 mi WNW 5.8 mph - N/A   Clear
9:15 PM 26.6 °F 20.0 °F 14.0 °F 59% 30.25 in 10.0 mi WNW 5.8 mph - N/A   Clear
9:35 PM 24.8 °F 16.9 °F 14.0 °F 64% 30.25 in 10.0 mi WNW 6.9 mph - N/A   Clear
9:55 PM 24.8 °F 17.9 °F 14.0 °F 64% 30.26 in 10.0 mi WNW 5.8 mph - N/A   Clear
10:15 PM 24.8 °F 17.9 °F 15.8 °F 69% 30.26 in 10.0 mi WNW 5.8 mph - N/A   Clear
10:35 PM 24.8 °F 17.9 °F 14.0 °F 64% 30.26 in 10.0 mi WNW 5.8 mph - N/A   Clear
10:55 PM 24.8 °F 16.9 °F 14.0 °F 64% 30.26 in 10.0 mi NW 6.9 mph - N/A   Clear
11:15 PM 24.8 °F 19.1 °F 14.0 °F 64% 30.26 in 10.0 mi WNW 4.6 mph - N/A   Clear
11:35 PM 24.8 °F 19.1 °F 14.0 °F 64% 30.26 in 10.0 mi WNW 4.6 mph - N/A   Clear
11:55 PM 24.8 °F 17.9 °F 15.8 °F 69% 30.26 in 10.0 mi WNW 5.8 mph - N/A   Clear